Time;durP1;ratioP1;P1;durP2;ratioP2;P2;SDS_P1;SDS_P2;PMS_P1;PMS_P2;Temp;Humidity;BMP_temperature;BMP_pressure;BME280_temperature;BME280_humidity;BME280_pressure;Samples;Min_cycle;Max_cycle;Signal;HPM_P1;HPM_P2
2022/09/05 00:01:56;;;;;;;4.97;4.47;;;;;;;15.90;43.81;100521.58;1679877;84;22725;-68
2022/09/05 00:04:54;;;;;;;9.08;5.12;;;;;;;15.89;43.94;100524.55;1684194;83;21049;-69
2022/09/05 00:07:48;;;;;;;5.50;4.92;;;;;;;15.88;44.21;100521.55;1679085;85;21096;-69
2022/09/05 00:10:24;;;;;;;;;;;;;;;15.86;44.45;100523.73;1684355;85;21533;-69
2022/09/05 00:12:51;;;;;;;8.00;5.17;;;;;;;15.83;44.52;100522.88;1654918;86;20465;-66
2022/09/05 00:16:17;;;;;;;7.25;4.97;;;;;;;15.81;44.45;100516.92;1649639;86;21594;-67
2022/09/05 00:19:14;;;;;;;5.72;4.40;;;;;;;15.81;44.64;100519.63;1683885;83;21015;-66
2022/09/05 00:22:22;;;;;;;5.12;4.03;;;;;;;15.78;44.47;100516.89;1656802;85;21547;-67
2022/09/05 00:25:17;;;;;;;5.80;4.85;;;;;;;15.76;44.44;100506.86;1686842;83;21029;-66
2022/09/05 00:28:24;;;;;;;6.45;4.92;;;;;;;15.74;44.36;100505.48;1724568;83;21036;-67
2022/09/05 00:31:14;;;;;;;6.78;4.90;;;;;;;15.74;44.51;100508.19;1717726;82;21278;-66
2022/09/05 00:34:05;;;;;;;6.42;4.25;;;;;;;15.73;44.76;100507.94;1712371;83;21034;-65
2022/09/05 00:36:48;;;;;;;6.70;4.40;;;;;;;15.68;44.75;100505.45;1669004;84;21093;-67
2022/09/05 00:39:30;;;;;;;5.60;4.35;;;;;;;15.65;45.02;100503.27;1695770;84;21544;-67
2022/09/05 00:42:00;;;;;;;7.92;5.03;;;;;;;15.61;45.10;100501.35;1687869;83;21050;-67
2022/09/05 00:44:31;;;;;;;6.10;4.58;;;;;;;15.59;44.91;100502.96;1710645;83;21125;-68
2022/09/05 00:47:27;;;;;;;5.92;4.70;;;;;;;15.56;45.00;100494.55;1697515;83;20983;-66
2022/09/05 00:50:02;;;;;;;5.15;4.25;;;;;;;15.55;45.33;100494.27;1711560;83;21005;-68
2022/09/05 00:52:40;;;;;;;5.45;4.05;;;;;;;15.51;45.14;100488.55;1713195;82;21125;-67
2022/09/05 00:55:47;;;;;;;9.70;5.22;;;;;;;15.49;44.89;100487.17;1701415;83;21512;-67
2022/09/05 00:58:28;;;;;;;20.02;6.95;;;;;;;15.45;44.99;100485.50;1712537;83;21158;-68
2022/09/05 01:00:57;;;;;;;7.78;5.42;;;;;;;15.44;45.06;100488.49;1712710;83;21010;-70
2022/09/05 01:03:59;;;;;;;6.30;4.62;;;;;;;15.39;45.32;100489.28;1725896;83;21096;-70
2022/09/05 01:06:38;;;;;;;4.75;4.12;;;;;;;15.36;45.41;100493.84;1672362;84;21038;-68
2022/09/05 01:09:32;;;;;;;4.95;4.08;;;;;;;15.31;45.27;100490.28;1675542;84;21652;-67
2022/09/05 01:12:21;;;;;;;8.68;5.28;;;;;;;15.26;45.14;100482.41;1693201;84;21736;-68
2022/09/05 01:15:03;;;;;;;5.80;3.75;;;;;;;15.22;45.40;100474.52;1683516;83;21103;-67
2022/09/05 01:18:17;;;;;;;6.60;4.12;;;;;;;15.21;45.37;100476.12;1723146;81;21596;-68
2022/09/05 01:21:02;;;;;;;5.83;4.65;;;;;;;15.19;45.38;100478.30;1712497;82;21006;-68
2022/09/05 01:24:01;;;;;;;7.60;5.12;;;;;;;15.15;45.69;100476.66;1711681;82;20966;-68
2022/09/05 01:26:38;;;;;;;7.47;4.85;;;;;;;15.12;45.76;100478.52;1712982;82;22171;-67
2022/09/05 01:29:25;;;;;;;5.40;4.53;;;;;;;15.10;45.91;100477.16;1713419;83;20982;-67
2022/09/05 01:32:14;;;;;;;6.78;4.62;;;;;;;15.06;46.08;100463.29;1708155;82;20979;-69
2022/09/05 01:34:49;;;;;;;6.47;4.90;;;;;;;15.05;46.25;100473.05;1690847;83;20963;-68
2022/09/05 01:37:25;;;;;;;8.18;4.97;;;;;;;15.02;46.33;100471.66;1709095;82;22494;-67
2022/09/05 01:40:28;;;;;;;11.48;5.80;;;;;;;14.99;46.48;100474.09;1710578;83;21198;-69
2022/09/05 01:43:24;;;;;;;7.70;4.80;;;;;;;14.94;46.60;100469.45;1711208;83;21125;-71
2022/09/05 01:46:08;;;;;;;8.43;5.05;;;;;;;14.87;46.46;100467.48;1705596;83;21448;-70
2022/09/05 01:49:06;;;;;;;10.85;6.15;;;;;;;14.80;46.51;100469.07;1704758;83;21203;-67
2022/09/05 01:51:59;;;;;;;7.53;4.75;;;;;;;14.77;46.71;100466.08;1708599;82;21097;-68
2022/09/05 01:54:47;;;;;;;5.80;4.35;;;;;;;14.70;46.53;100462.22;1709828;83;22413;-67
2022/09/05 01:57:41;;;;;;;6.12;4.30;;;;;;;14.64;46.50;100460.53;1712181;82;20983;-67
2022/09/05 02:00:11;;;;;;;;;;;;;;;14.60;46.44;100459.42;1715310;83;21654;-70
2022/09/05 02:03:16;;;;;;;6.62;4.22;;;;;;;14.57;46.46;100456.41;1687111;83;20336;-69
2022/09/05 02:06:11;;;;;;;5.65;5.10;;;;;;;14.54;46.45;100458.26;1707418;82;21069;-69
2022/09/05 02:09:05;;;;;;;6.00;5.00;;;;;;;14.51;46.64;100450.66;1684265;84;21184;-69
2022/09/05 02:11:52;;;;;;;6.03;4.90;;;;;;;14.47;46.41;100447.66;1624611;85;20974;-73
2022/09/05 02:14:39;;;;;;;6.15;4.35;;;;;;;14.46;46.52;100450.62;1693703;83;22261;-68
2022/09/05 02:17:31;;;;;;;9.28;5.28;;;;;;;14.47;46.56;100444.14;1706880;83;20992;-69
2022/09/05 02:20:31;;;;;;;6.45;4.90;;;;;;;14.48;46.48;100444.42;1708172;83;21026;-70
2022/09/05 02:23:28;;;;;;;6.47;5.70;;;;;;;14.50;46.59;100440.37;1709010;83;21754;-69
2022/09/05 02:26:12;;;;;;;8.05;5.05;;;;;;;14.51;46.56;100440.66;1712378;83;20966;-68
2022/09/05 02:28:51;;;;;;;21.60;4.85;;;;;;;14.53;46.64;100431.73;1708276;83;20939;-71
2022/09/05 02:31:35;;;;;;;5.35;4.72;;;;;;;14.53;46.62;100432.29;1714030;83;20971;-67
2022/09/05 02:34:16;;;;;;;6.03;4.50;;;;;;;14.54;46.74;100431.19;1712117;82;21488;-67
2022/09/05 02:36:51;;;;;;;7.42;5.67;;;;;;;14.54;46.70;100426.59;1706641;83;21147;-68
2022/09/05 02:39:41;;;;;;;7.97;5.30;;;;;;;14.55;46.78;100431.48;1714177;83;20900;-68
2022/09/05 02:42:28;;;;;;;6.03;5.42;;;;;;;14.55;46.67;100424.17;1709124;83;20961;-68
2022/09/05 02:45:15;;;;;;;8.28;5.72;;;;;;;14.57;46.76;100427.45;1694103;84;21036;-69
2022/09/05 02:48:01;;;;;;;9.93;6.28;;;;;;;14.58;46.87;100425.56;1701162;83;21062;-69
2022/09/05 02:50:48;;;;;;;12.50;6.20;;;;;;;14.55;47.00;100420.11;1725496;82;21313;-69
2022/09/05 02:53:18;;;;;;;7.60;5.08;;;;;;;14.53;47.09;100424.95;1690358;84;21017;-68
2022/09/05 02:56:17;;;;;;;6.47;5.33;;;;;;;14.49;47.14;100428.44;1708370;82;21021;-68
2022/09/05 02:59:09;;;;;;;8.55;6.17;;;;;;;14.45;47.25;100431.38;1711708;83;21137;-69
2022/09/05 03:02:05;;;;;;;8.70;5.70;;;;;;;14.38;47.33;100427.55;1673871;83;21494;-68
2022/09/05 03:05:11;;;;;;;6.90;5.50;;;;;;;14.34;47.46;100433.14;1697803;83;21128;-70
2022/09/05 03:08:24;;;;;;;6.70;5.43;;;;;;;14.28;47.51;100432.83;1711428;83;21058;-68
2022/09/05 03:11:29;;;;;;;7.97;5.78;;;;;;;14.22;47.62;100425.20;1687997;83;21568;-68
2022/09/05 03:14:17;;;;;;;10.18;6.28;;;;;;;14.21;47.78;100438.97;1699341;83;20977;-69
2022/09/05 03:17:22;;;;;;;13.03;6.12;;;;;;;14.19;47.88;100436.55;1673530;84;21109;-69
2022/09/05 03:19:57;;;;;;;9.33;6.47;;;;;;;14.18;48.14;100434.08;1677193;84;21168;-68
2022/09/05 03:23:01;;;;;;;9.65;7.25;;;;;;;14.14;48.19;100437.84;1685794;84;21010;-69
2022/09/05 03:25:47;;;;;;;;;;;;;;;14.13;48.33;100439.44;1693098;84;21003;-72
2022/09/05 03:28:56;;;;;;;8.38;7.00;;;;;;;14.10;48.51;100435.34;1669856;84;20178;-68
2022/09/05 03:32:00;;;;;;;10.32;6.97;;;;;;;14.08;48.68;100433.44;1673550;84;21038;-69
2022/09/05 03:34:38;;;;;;;8.70;6.92;;;;;;;14.07;48.86;100435.86;1683226;84;21151;-70
2022/09/05 03:37:33;;;;;;;8.40;6.78;;;;;;;14.07;49.00;100432.33;1691992;84;21038;-70
2022/09/05 03:40:27;;;;;;;10.38;7.30;;;;;;;14.07;49.13;100438.56;1692810;84;21022;-70
2022/09/05 03:43:04;;;;;;;;;;;;;;;14.07;49.28;100432.33;1668914;85;21018;-70
2022/09/05 03:45:55;;;;;;;9.10;7.20;;;;;;;14.07;49.34;100437.74;1693093;84;20424;-67
2022/09/05 03:48:52;;;;;;;8.63;7.17;;;;;;;14.05;49.52;100436.67;1688960;84;21049;-69
2022/09/05 03:51:47;;;;;;;10.88;7.95;;;;;;;14.04;49.68;100438.27;1688198;84;20978;-68
2022/09/05 03:54:50;;;;;;;10.30;7.47;;;;;;;14.03;49.73;100440.68;1671425;84;21129;-74
2022/09/05 03:57:40;;;;;;;15.78;9.63;;;;;;;14.01;49.96;100446.34;1674084;84;21081;-68
2022/09/05 04:00:23;;;;;;;8.88;6.72;;;;;;;13.96;49.87;100443.04;1639767;87;22026;-68
2022/09/05 04:03:04;;;;;;;12.50;6.50;;;;;;;13.93;49.92;100438.68;1676050;84;21779;-68
2022/09/05 04:05:36;;;;;;;11.00;7.20;;;;;;;13.90;50.12;100448.66;1715365;83;20919;-69
2022/09/05 04:08:26;;;;;;;10.55;8.10;;;;;;;13.86;50.48;100444.27;1663348;83;21058;-69
2022/09/05 04:11:06;;;;;;;12.07;7.97;;;;;;;13.84;50.69;100440.20;1710705;83;21936;-68
2022/09/05 04:13:39;;;;;;;13.98;7.30;;;;;;;13.84;50.79;100438.84;1686429;84;21088;-68
2022/09/05 04:16:29;;;;;;;10.30;6.95;;;;;;;13.84;51.09;100446.43;1653931;86;21724;-68
2022/09/05 04:19:16;;;;;;;11.05;7.55;;;;;;;13.83;51.28;100439.91;1686060;84;21554;-66
2022/09/05 04:22:00;;;;;;;10.10;7.58;;;;;;;13.83;51.36;100442.09;1693404;84;20986;-66
2022/09/05 04:24:35;;;;;;;12.28;7.65;;;;;;;13.82;51.53;100439.09;1690350;83;21014;-66
2022/09/05 04:27:22;;;;;;;13.80;8.53;;;;;;;13.83;51.87;100438.03;1694587;84;21533;-67
2022/09/05 04:30:23;;;;;;;15.78;8.98;;;;;;;13.83;52.05;100440.73;1713724;83;21331;-69
2022/09/05 04:33:04;;;;;;;12.53;8.90;;;;;;;13.85;52.29;100444.02;1682016;85;21064;-68
2022/09/05 04:35:51;;;;;;;9.98;8.00;;;;;;;13.86;52.50;100442.92;1679684;83;21028;-64
2022/09/05 04:38:37;;;;;;;11.03;7.55;;;;;;;13.87;52.65;100447.27;1684639;83;21022;-67
2022/09/05 04:41:15;;;;;;;11.43;8.28;;;;;;;13.88;52.86;100449.44;1692979;83;21530;-66
2022/09/05 04:43:56;;;;;;;14.15;9.70;;;;;;;13.87;53.01;100444.56;1711941;83;21123;-66
2022/09/05 04:46:48;;;;;;;14.07;9.00;;;;;;;13.89;53.25;100440.27;1706533;83;20970;-69
2022/09/05 04:49:26;;;;;;;15.10;8.50;;;;;;;13.89;53.68;100433.50;1691724;84;21530;-65
2022/09/05 04:52:10;;;;;;;13.10;9.18;;;;;;;13.91;53.95;100440.27;1712584;83;21054;-67
2022/09/05 04:55:01;;;;;;;15.13;9.88;;;;;;;13.94;54.36;100447.91;1719273;83;21000;-70
2022/09/05 04:57:43;;;;;;;23.65;9.43;;;;;;;13.97;54.32;100454.68;1730926;82;21157;-72
2022/09/05 05:00:33;;;;;;;14.33;9.70;;;;;;;14.00;54.75;100466.36;1738380;82;21003;-71
2022/09/05 05:03:03;;;;;;;16.15;9.65;;;;;;;14.00;54.96;100464.19;1676234;84;21107;-73
2022/09/05 05:05:48;;;;;;;16.10;10.53;;;;;;;13.99;55.30;100452.55;1716944;83;21149;-74
2022/09/05 05:08:31;;;;;;;15.23;10.23;;;;;;;13.99;55.68;100455.26;1687337;83;21038;-74
2022/09/05 05:11:09;;;;;;;20.52;9.18;;;;;;;14.00;55.74;100442.02;1694753;83;21175;-73
2022/09/05 05:13:47;;;;;;;17.12;8.55;;;;;;;14.04;55.84;100453.14;1688173;83;21068;-74
2022/09/05 05:16:19;;;;;;;17.65;9.58;;;;;;;14.09;55.88;100452.67;1677922;84;20995;-76
2022/09/05 05:18:54;;;;;;;17.45;10.78;;;;;;;14.14;56.06;100451.91;1711599;82;21343;-74
2022/09/05 05:21:26;;;;;;;19.73;10.82;;;;;;;14.16;56.24;100453.27;1695374;84;21002;-76
2022/09/05 05:24:14;;;;;;;16.62;10.32;;;;;;;14.18;56.22;100457.91;1692585;84;21137;-76
2022/09/05 05:27:17;;;;;;;15.05;9.48;;;;;;;14.20;56.41;100457.09;1682980;84;21662;-73
2022/09/05 05:30:06;;;;;;;13.83;7.70;;;;;;;14.22;56.94;100459.02;1716097;82;21086;-73
2022/09/05 05:32:45;;;;;;;16.75;9.65;;;;;;;14.22;57.93;100447.37;1695525;83;21044;-74
2022/09/05 05:35:13;;;;;;;13.50;9.03;;;;;;;14.22;59.69;100462.26;1710031;83;21064;-73
2022/09/05 05:37:51;;;;;;;19.05;11.43;;;;;;;14.17;60.63;100457.61;1726205;81;21747;-73
2022/09/05 05:40:28;;;;;;;14.73;9.80;;;;;;;14.08;61.23;100464.55;1724944;83;21565;-66
2022/09/05 05:43:20;;;;;;;16.95;11.65;;;;;;;13.99;61.65;100472.84;1680345;84;21571;-64
2022/09/05 05:45:58;;;;;;;15.23;11.05;;;;;;;13.89;62.47;100468.13;1692879;83;21037;-65
2022/09/05 05:48:37;;;;;;;16.93;10.95;;;;;;;13.76;63.66;100474.45;1689300;84;21094;-63
2022/09/05 05:51:18;;;;;;;18.05;10.43;;;;;;;13.67;64.86;100479.45;1695311;84;21168;-67
2022/09/05 05:54:16;;;;;;;37.85;11.97;;;;;;;13.58;65.82;100485.55;1713459;83;21062;-65
2022/09/05 05:57:09;;;;;;;17.90;11.88;;;;;;;13.49;66.82;100486.52;1695204;84;21609;-65
2022/09/05 06:00:13;;;;;;;16.30;10.85;;;;;;;13.40;67.26;100467.22;1713682;83;21030;-64
2022/09/05 06:03:04;;;;;;;18.95;15.40;;;;;;;13.38;67.55;100456.39;1691277;84;21077;-65
2022/09/05 06:06:14;;;;;;;21.80;14.60;;;;;;;13.40;67.63;100462.34;1695616;84;21664;-64
2022/09/05 06:09:05;;;;;;;21.57;13.90;;;;;;;13.44;67.56;100454.02;1713252;83;21567;-65
2022/09/05 06:11:55;;;;;;;25.52;13.70;;;;;;;13.51;67.70;100460.07;1695471;84;21077;-65
2022/09/05 06:15:06;;;;;;;17.95;13.28;;;;;;;13.54;68.58;100456.86;1695283;84;21007;-65
2022/09/05 06:18:14;;;;;;;24.82;15.23;;;;;;;13.55;69.31;100465.25;1713111;83;21016;-65
2022/09/05 06:21:25;;;;;;;30.85;15.00;;;;;;;13.53;70.19;100471.43;1642157;87;21119;-64
2022/09/05 06:24:24;;;;;;;38.48;23.18;;;;;;;13.46;71.30;100476.22;1695729;83;21039;-64
2022/09/05 06:27:40;;;;;;;44.55;27.87;;;;;;;13.44;72.42;100464.30;1697093;84;21505;-66
2022/09/05 06:30:18;;;;;;;55.90;35.25;;;;;;;13.47;72.96;100471.92;1700290;83;21030;-65
2022/09/05 06:33:27;;;;;;;59.45;35.33;;;;;;;13.52;73.59;100477.93;1695472;84;21126;-65
2022/09/05 06:36:13;;;;;;;82.92;55.15;;;;;;;13.58;73.90;100478.79;1695531;84;21181;-65
2022/09/05 06:38:57;;;;;;;96.92;65.87;;;;;;;13.67;74.42;100486.77;1695328;84;21128;-63
2022/09/05 06:41:49;;;;;;;112.70;73.65;;;;;;;13.74;74.97;100493.63;1725801;83;21082;-66
2022/09/05 06:45:04;;;;;;;131.70;83.00;;;;;;;13.82;74.94;100496.41;1714043;83;20975;-65
2022/09/05 06:47:34;;;;;;;129.90;82.27;;;;;;;13.92;75.10;100500.06;1752611;81;21023;-65
2022/09/05 06:50:10;;;;;;;120.82;82.10;;;;;;;14.06;75.16;100487.50;1725992;82;21627;-65
2022/09/05 06:52:55;;;;;;;110.20;76.07;;;;;;;14.18;75.23;100497.13;1725909;81;20947;-65
2022/09/05 06:55:43;;;;;;;113.22;76.57;;;;;;;14.26;75.66;100491.26;1705471;83;21006;-63
2022/09/05 06:58:53;;;;;;;108.57;71.57;;;;;;;14.40;75.55;100499.82;1695715;84;21532;-66
2022/09/05 07:01:26;;;;;;;98.37;67.37;;;;;;;14.56;75.59;100521.92;1668797;86;21143;-66
2022/09/05 07:04:12;;;;;;;;;;;;;;;14.65;74.24;100537.98;1679791;85;21141;-64
2022/09/05 07:07:14;;;;;;;105.72;67.08;;;;;;;14.71;74.49;100541.03;1681396;85;20160;-64
2022/09/05 07:09:47;;;;;;;102.35;67.70;;;;;;;14.75;74.81;100538.62;1668212;83;21183;-64
2022/09/05 07:12:32;;;;;;;88.82;63.02;;;;;;;14.81;74.75;100535.71;1711276;83;21630;-64
2022/09/05 07:15:31;;;;;;;101.75;67.47;;;;;;;14.85;74.48;100523.82;1710050;83;21070;-64
2022/09/05 07:18:42;;;;;;;117.28;69.03;;;;;;;14.87;74.42;100510.81;1710977;83;21146;-64
2022/09/05 07:21:29;;;;;;;108.52;70.30;;;;;;;14.90;74.65;100527.11;1711034;83;22179;-64
2022/09/05 07:24:10;;;;;;;98.03;69.37;;;;;;;14.92;75.32;100553.39;1706016;83;21022;-65
2022/09/05 07:26:46;;;;;;;122.20;86.78;;;;;;;14.87;76.02;100566.34;1704174;83;21138;-66
2022/09/05 07:29:18;;;;;;;129.72;86.05;;;;;;;14.78;76.33;100580.08;1681512;85;21150;-66
2022/09/05 07:31:50;;;;;;;127.65;88.07;;;;;;;14.65;76.11;100571.83;1680891;84;21152;-64
2022/09/05 07:34:23;;;;;;;146.53;92.57;;;;;;;14.57;76.55;100572.83;1702303;84;21087;-63
2022/09/05 07:36:56;;;;;;;;;;;;;;;14.49;76.74;100567.31;1704978;84;21527;-65
2022/09/05 07:39:33;;;;;;;146.72;97.53;;;;;;;14.41;76.60;100539.35;1702454;82;21038;-66
2022/09/05 07:42:04;;;;;;;130.27;91.65;;;;;;;14.36;76.87;100546.88;1702621;84;21010;-65
2022/09/05 07:44:35;;;;;;;132.07;94.25;;;;;;;14.34;77.10;100561.16;1702352;84;21156;-64
2022/09/05 07:47:05;;;;;;;129.80;87.75;;;;;;;14.34;77.56;100573.34;1697978;84;21101;-65
2022/09/05 07:49:35;;;;;;;134.03;85.72;;;;;;;14.30;78.22;100591.69;1703337;84;21427;-65
2022/09/05 07:52:21;;;;;;;118.25;82.40;;;;;;;14.19;78.78;100591.30;1703965;84;21019;-64
2022/09/05 07:54:51;;;;;;;114.85;74.87;;;;;;;14.08;79.24;100601.70;1704500;84;20938;-65
2022/09/05 07:57:22;;;;;;;98.03;66.85;;;;;;;13.98;79.29;100580.20;1702813;84;21134;-65
2022/09/05 07:59:55;;;;;;;96.17;63.83;;;;;;;13.96;79.43;100589.09;1702662;84;21122;-63
2022/09/05 08:02:22;;;;;;;84.70;60.08;;;;;;;13.93;80.43;100593.66;1702516;84;21124;-63
2022/09/05 08:04:48;;;;;;;85.53;58.30;;;;;;;13.83;80.66;100591.34;1702647;84;21468;-63
2022/09/05 08:07:23;;;;;;;71.50;50.00;;;;;;;13.67;81.24;100575.98;1702468;84;21110;-65
2022/09/05 08:09:54;;;;;;;74.55;48.80;;;;;;;13.53;82.20;100577.66;1702676;84;21136;-62
2022/09/05 08:12:27;;;;;;;77.72;50.10;;;;;;;13.42;83.01;100585.87;1682089;84;21065;-64
2022/09/05 08:15:13;;;;;;;62.23;46.45;;;;;;;13.35;83.80;100579.28;1702497;84;21586;-63
2022/09/05 08:18:05;;;;;;;83.15;53.15;;;;;;;13.32;84.95;100570.85;1698568;84;21121;-64
2022/09/05 08:20:44;;;;;;;68.45;50.73;;;;;;;13.31;85.57;100550.30;1669214;84;21050;-63
2022/09/05 08:23:46;;;;;;;69.07;48.30;;;;;;;13.36;86.07;100537.69;1692617;84;22045;-64
2022/09/05 08:26:42;;;;;;;71.80;49.10;;;;;;;13.44;86.30;100521.05;1704333;84;20965;-63
2022/09/05 08:29:14;;;;;;;76.02;51.98;;;;;;;13.50;86.70;100522.77;1696437;84;21052;-63
2022/09/05 08:32:07;;;;;;;66.80;44.27;;;;;;;13.54;87.01;100527.95;1708931;83;21121;-63
2022/09/05 08:34:48;;;;;;;74.30;53.52;;;;;;;13.64;87.48;100529.98;1713663;83;20942;-64
2022/09/05 08:37:20;;;;;;;68.28;48.90;;;;;;;13.76;87.38;100526.64;1694953;84;21570;-63
2022/09/05 08:39:52;;;;;;;75.45;50.78;;;;;;;13.88;87.26;100530.03;1694969;84;21033;-64
2022/09/05 08:43:00;;;;;;;60.75;44.70;;;;;;;14.02;87.36;100529.66;1695003;84;20978;-64
2022/09/05 08:45:45;;;;;;;71.15;48.92;;;;;;;14.17;87.45;100523.90;1713551;83;20996;-62
2022/09/05 08:48:29;;;;;;;72.20;49.13;;;;;;;14.22;87.23;100519.08;1709088;83;21625;-64
2022/09/05 08:51:15;;;;;;;77.40;49.83;;;;;;;14.28;87.45;100522.13;1708619;84;21118;-64
2022/09/05 08:54:17;;;;;;;63.58;46.77;;;;;;;14.37;87.99;100517.41;1669994;85;21570;-65
2022/09/05 08:56:55;;;;;;;69.50;50.30;;;;;;;14.54;88.80;100522.70;1701124;84;21522;-63
2022/09/05 08:59:46;;;;;;;69.80;51.40;;;;;;;14.68;89.05;100519.86;1713661;83;21095;-65
2022/09/05 09:02:50;;;;;;;68.30;46.53;;;;;;;14.83;89.24;100520.00;1709838;83;21562;-63
2022/09/05 09:06:00;;;;;;;76.15;46.18;;;;;;;14.99;88.85;100516.90;1725552;83;21326;-64
2022/09/05 09:08:55;;;;;;;58.92;40.73;;;;;;;15.13;87.33;100514.03;1693714;82;21060;-64
2022/09/05 09:11:39;;;;;;;56.20;39.70;;;;;;;15.24;84.98;100516.28;1693288;83;21069;-63
2022/09/05 09:14:36;;;;;;;49.85;34.03;;;;;;;15.34;83.98;100506.05;1693793;84;21010;-64
2022/09/05 09:17:42;;;;;;;;;;;;;;;15.42;82.52;100499.59;1694787;84;21010;-64
2022/09/05 09:20:35;;;;;;;47.93;32.05;;;;;;;15.52;81.21;100502.39;1692600;84;21148;-64
2022/09/05 09:23:07;;;;;;;38.02;26.77;;;;;;;15.62;80.54;100499.74;1713009;83;21572;-63
2022/09/05 09:25:42;;;;;;;36.95;26.45;;;;;;;15.74;78.52;100495.98;1719655;82;21127;-63
2022/09/05 09:29:01;;;;;;;39.98;26.12;;;;;;;15.84;77.27;100493.32;1720884;81;20987;-63
2022/09/05 09:31:36;;;;;;;37.28;23.77;;;;;;;15.97;75.99;100489.57;1697198;82;20994;-66
2022/09/05 09:34:25;;;;;;;30.48;18.87;;;;;;;16.17;74.48;100502.40;1719068;83;21274;-65
2022/09/05 09:37:15;;;;;;;31.90;22.13;;;;;;;16.31;70.96;100486.41;1693198;84;20959;-65
2022/09/05 09:40:11;;;;;;;35.75;22.73;;;;;;;16.51;70.75;100494.61;1704066;84;20944;-63
2022/09/05 09:43:09;;;;;;;32.45;21.02;;;;;;;16.63;69.04;100483.53;1690036;84;21043;-64
2022/09/05 09:46:04;;;;;;;33.42;19.12;;;;;;;16.82;68.50;100475.13;1682499;84;21069;-63
2022/09/05 09:48:52;;;;;;;30.20;20.15;;;;;;;16.95;66.91;100474.03;1696240;84;21142;-67
2022/09/05 09:52:11;;;;;;;26.97;18.70;;;;;;;17.06;65.27;100468.05;1690349;84;21028;-63
2022/09/05 09:55:19;;;;;;;25.62;18.05;;;;;;;17.12;62.56;100465.58;1634545;86;21204;-62
2022/09/05 09:58:09;;;;;;;28.75;19.55;;;;;;;17.19;62.40;100457.15;1639830;86;21078;-61
2022/09/05 10:00:50;;;;;;;33.73;20.97;;;;;;;17.30;63.51;100458.22;1700154;83;21060;-63
2022/09/05 10:03:43;;;;;;;25.20;18.02;;;;;;;17.38;63.69;100458.19;1705092;84;21093;-63
2022/09/05 10:06:54;;;;;;;26.87;19.60;;;;;;;17.41;62.19;100455.73;1722947;82;21044;-63
2022/09/05 10:09:38;;;;;;;26.23;15.78;;;;;;;17.47;61.63;100451.64;1685543;84;21634;-66
2022/09/05 10:12:33;;;;;;;24.02;16.73;;;;;;;17.53;60.47;100450.53;1672068;84;21113;-69
2022/09/05 10:15:14;;;;;;;25.25;17.87;;;;;;;17.55;60.72;100453.81;1681890;84;21586;-68
2022/09/05 10:18:05;;;;;;;24.15;17.45;;;;;;;17.57;61.34;100451.06;1692394;84;21037;-71
2022/09/05 10:21:06;;;;;;;22.22;17.37;;;;;;;17.60;60.33;100451.11;1683369;84;21099;-69
2022/09/05 10:24:05;;;;;;;24.77;16.20;;;;;;;17.60;59.75;100452.46;1693798;84;21525;-66
2022/09/05 10:27:02;;;;;;;22.00;15.53;;;;;;;17.58;59.53;100457.33;1703288;84;21090;-67
2022/09/05 10:30:07;;;;;;;15.98;12.73;;;;;;;17.55;59.47;100459.25;1690555;84;21077;-71
2022/09/05 10:32:54;;;;;;;19.80;14.50;;;;;;;17.54;58.32;100453.53;1710322;83;21121;-71
2022/09/05 10:35:48;;;;;;;17.35;12.10;;;;;;;17.56;58.33;100454.05;1671625;84;20987;-72
2022/09/05 10:38:39;;;;;;;17.90;12.68;;;;;;;17.59;58.07;100460.35;1667109;86;21010;-69
2022/09/05 10:41:18;;;;;;;17.32;12.58;;;;;;;17.62;58.69;100461.14;1705163;81;21032;-70
2022/09/05 10:43:59;;;;;;;11.85;8.88;;;;;;;17.65;58.34;100461.97;1734120;82;21026;-71
2022/09/05 10:46:48;;;;;;;9.13;6.37;;;;;;;17.66;56.87;100460.85;1711921;83;21074;-68
2022/09/05 10:49:15;;;;;;;8.93;4.35;;;;;;;17.69;54.66;100459.78;1725419;83;21017;-68
2022/09/05 10:52:15;;;;;;;4.58;3.17;;;;;;;17.69;50.49;100457.59;1706187;83;21022;-70
2022/09/05 10:55:25;;;;;;;5.33;3.65;;;;;;;17.67;49.41;100459.23;1725399;83;20988;-67
2022/09/05 10:58:44;;;;;;;7.45;2.87;;;;;;;17.64;48.22;100458.44;1694396;84;21057;-67
2022/09/05 11:01:34;;;;;;;4.87;3.83;;;;;;;17.70;47.66;100451.04;1708475;83;21333;-66
2022/09/05 11:04:24;;;;;;;6.17;3.17;;;;;;;17.81;47.65;100447.19;1725657;83;20905;-67
2022/09/05 11:07:05;;;;;;;7.37;2.47;;;;;;;17.93;46.73;100460.48;1694240;84;21543;-68
2022/09/05 11:10:13;;;;;;;2.87;2.27;;;;;;;18.07;45.75;100450.62;1694046;84;21037;-68
2022/09/05 11:12:55;;;;;;;2.17;1.98;;;;;;;18.21;45.12;100425.75;1694870;84;21085;-69
2022/09/05 11:15:50;;;;;;;2.58;2.20;;;;;;;18.45;45.60;100435.39;1676218;84;21179;-70
2022/09/05 11:18:32;;;;;;;2.65;1.80;;;;;;;18.70;44.90;100427.84;1705694;83;20980;-68
2022/09/05 11:21:27;;;;;;;1.62;1.52;;;;;;;18.94;43.92;100433.39;1696351;84;21064;-76
2022/09/05 11:23:56;;;;;;;4.62;2.05;;;;;;;19.02;41.55;100438.20;1688367;83;21010;-74
2022/09/05 11:26:55;;;;;;;3.12;2.77;;;;;;;18.93;41.16;100435.84;1670303;86;21108;-70
2022/09/05 11:29:35;;;;;;;5.17;2.42;;;;;;;18.77;41.55;100431.62;1721473;82;21549;-70
2022/09/05 11:32:24;;;;;;;1.85;1.75;;;;;;;18.61;42.11;100435.01;1714034;83;21086;-70
2022/09/05 11:35:09;;;;;;;2.45;1.87;;;;;;;18.55;41.16;100428.00;1715618;83;21065;-71
2022/09/05 11:38:01;;;;;;;3.10;1.75;;;;;;;18.61;40.90;100433.64;1722439;83;21068;-69
2022/09/05 11:40:53;;;;;;;7.33;1.85;;;;;;;18.62;41.03;100438.00;1692648;84;21011;-75
2022/09/05 11:44:13;;;;;;;2.02;1.47;;;;;;;18.60;41.12;100423.05;1711945;83;21873;-74
2022/09/05 11:46:51;;;;;;;4.80;2.02;;;;;;;18.59;41.06;100438.59;1706904;83;21049;-80
2022/09/05 11:49:51;;;;;;;2.35;1.67;;;;;;;18.68;40.56;100426.52;1686805;83;21056;-72
2022/09/05 11:53:04;;;;;;;3.55;1.50;;;;;;;18.77;39.23;100417.17;1642723;85;21047;-74
2022/09/05 11:55:46;;;;;;;2.58;1.45;;;;;;;18.83;39.24;100403.22;1720590;83;21029;-73
2022/09/05 11:58:41;;;;;;;4.17;2.25;;;;;;;18.90;38.54;100417.86;1725173;83;21907;-75
2022/09/05 12:01:28;;;;;;;6.53;1.75;;;;;;;18.97;38.03;100408.27;1717506;82;20958;-67
2022/09/05 12:04:15;;;;;;;3.02;2.05;;;;;;;19.03;38.08;100417.21;1671527;82;21566;-66
2022/09/05 12:07:08;;;;;;;5.75;2.85;;;;;;;19.19;37.73;100400.94;1688395;82;38977;-68
2022/09/05 12:10:03;;;;;;;2.92;2.45;;;;;;;19.33;37.79;100403.23;1671399;85;21001;-66
2022/09/05 12:12:56;;;;;;;3.25;2.80;;;;;;;19.48;36.36;100401.72;1681253;84;21331;-69
2022/09/05 12:15:36;;;;;;;8.05;3.75;;;;;;;19.66;35.69;100417.09;1688994;82;21554;-67
2022/09/05 12:18:45;;;;;;;6.20;3.87;;;;;;;19.53;35.20;100402.22;1717443;82;21000;-72
2022/09/05 12:21:26;;;;;;;6.05;3.00;;;;;;;19.46;35.87;100399.05;1701276;82;21510;-69
2022/09/05 12:24:21;;;;;;;3.85;2.83;;;;;;;19.46;35.26;100414.86;1638988;83;21063;-69
2022/09/05 12:26:59;;;;;;;5.35;3.55;;;;;;;19.40;35.73;100397.44;1728477;82;21138;-70
2022/09/05 12:29:28;;;;;;;4.47;3.80;;;;;;;19.46;35.62;100427.14;1737801;82;21019;-70
2022/09/05 12:31:58;;;;;;;3.92;3.47;;;;;;;19.52;34.81;100407.41;1726386;82;21548;-76
2022/09/05 12:34:52;;;;;;;3.45;3.12;;;;;;;19.65;34.51;100403.98;1712355;83;21322;-74
2022/09/05 12:37:30;;;;;;;5.30;3.98;;;;;;;19.59;34.10;100416.88;1691581;83;21080;-70
2022/09/05 12:40:10;;;;;;;4.55;3.95;;;;;;;19.48;34.71;100407.18;1684027;85;21062;-70
2022/09/05 12:42:45;;;;;;;6.72;4.85;;;;;;;19.50;34.95;100404.17;1721462;82;21053;-72
2022/09/05 12:45:42;;;;;;;7.62;5.90;;;;;;;19.60;34.28;100404.05;1704353;83;21614;-71
2022/09/05 12:48:17;;;;;;;10.10;7.33;;;;;;;19.55;33.17;100407.66;1651374;85;21056;-71
2022/09/05 12:51:06;;;;;;;6.95;5.60;;;;;;;19.58;32.91;100400.79;1700495;82;21540;-69
2022/09/05 12:53:53;;;;;;;6.42;5.75;;;;;;;19.60;32.99;100409.51;1712042;82;21143;-72
2022/09/05 12:56:40;;;;;;;6.25;5.50;;;;;;;19.64;32.75;100402.36;1702803;82;21046;-72